Time;durP1;ratioP1;P1;durP2;ratioP2;P2;SDS_P1;SDS_P2;PMS_P1;PMS_P2;Temp;Humidity;BMP_temperature;BMP_pressure;BME280_temperature;BME280_humidity;BME280_pressure;Samples;Min_cycle;Max_cycle;Signal;HPM_P1;HPM_P2
2023/12/29 00:01:53;;;;;;;1999.90;999.90;;;4.50;91.60;;;;;;5048154;28;20033;-75
2023/12/29 00:04:19;;;;;;;1999.90;999.90;;;4.40;91.60;;;;;;5047248;28;20065;-75
2023/12/29 00:06:45;;;;;;;1999.90;999.90;;;4.40;91.60;;;;;;5030364;28;20033;-75
2023/12/29 00:09:10;;;;;;;1999.90;999.90;;;4.40;91.50;;;;;;5045747;28;20055;-75
2023/12/29 00:11:36;;;;;;;1999.90;999.90;;;4.30;91.60;;;;;;5046596;28;20044;-76
2023/12/29 00:14:02;;;;;;;1999.90;999.90;;;4.20;91.90;;;;;;5046167;28;20115;-75
2023/12/29 00:16:28;;;;;;;1999.90;999.90;;;4.10;92.10;;;;;;5048981;28;20045;-75
2023/12/29 00:18:53;;;;;;;1999.90;999.90;;;4.10;92.10;;;;;;5046023;28;20029;-76
2023/12/29 00:21:19;;;;;;;1999.90;999.90;;;3.90;92.30;;;;;;5044698;28;20041;-75
2023/12/29 00:23:45;;;;;;;1999.90;999.90;;;3.90;92.50;;;;;;5052046;28;20082;-75
2023/12/29 00:26:10;;;;;;;1999.90;999.90;;;3.80;92.20;;;;;;5047447;28;20033;-75
2023/12/29 00:28:40;;;;;;;1999.90;999.90;;;3.90;92.60;;;;;;5045012;28;20021;-75
2023/12/29 00:31:09;;;;;;;1999.90;999.90;;;3.80;92.80;;;;;;5044499;28;20124;-75
2023/12/29 00:33:35;;;;;;;1999.90;999.90;;;3.90;92.80;;;;;;5045525;28;20037;-75
2023/12/29 00:36:00;;;;;;;1999.90;999.90;;;3.90;92.80;;;;;;5045126;28;20032;-76
2023/12/29 00:38:29;;;;;;;1999.90;999.90;;;3.80;92.90;;;;;;5039830;28;20029;-75
2023/12/29 00:40:55;;;;;;;1999.90;999.90;;;3.70;93.10;;;;;;5057442;28;20041;-75
2023/12/29 00:43:21;;;;;;;1999.90;999.90;;;3.80;93.50;;;;;;5044560;28;20090;-74
2023/12/29 00:45:47;;;;;;;1999.90;999.90;;;3.80;93.80;;;;;;5046322;28;20502;-76
2023/12/29 00:48:12;;;;;;;1999.90;999.90;;;3.70;93.50;;;;;;5045439;28;20029;-75
2023/12/29 00:50:38;;;;;;;1999.90;999.90;;;3.60;93.40;;;;;;5045265;28;20800;-76
2023/12/29 00:53:04;;;;;;;1999.90;999.90;;;3.50;93.70;;;;;;5043501;28;20117;-75
2023/12/29 00:55:29;;;;;;;1999.90;999.90;;;3.70;94.00;;;;;;5043435;28;20112;-75
2023/12/29 00:57:55;;;;;;;1999.90;999.90;;;3.70;93.90;;;;;;5042932;28;20033;-76
2023/12/29 01:00:21;;;;;;;1999.90;999.90;;;3.60;93.90;;;;;;5041287;28;20052;-75
2023/12/29 01:02:46;;;;;;;1999.90;999.90;;;3.60;94.00;;;;;;5045223;28;20030;-76
2023/12/29 01:05:17;;;;;;;1999.90;999.90;;;3.70;94.10;;;;;;5043387;28;20044;-76
2023/12/29 01:07:43;;;;;;;1999.90;999.90;;;3.70;94.20;;;;;;5046400;28;20098;-75
2023/12/29 01:10:09;;;;;;;1999.90;999.90;;;3.70;94.00;;;;;;5043675;28;20045;-75
2023/12/29 01:12:34;;;;;;;1999.90;999.90;;;3.60;94.10;;;;;;5047679;28;20048;-75
2023/12/29 01:15:00;;;;;;;1999.90;999.90;;;3.70;94.20;;;;;;5047244;28;20037;-74
2023/12/29 01:17:27;;;;;;;1999.90;999.90;;;3.80;94.20;;;;;;5046056;28;20567;-75
2023/12/29 01:19:54;;;;;;;1999.90;999.90;;;3.80;94.00;;;;;;5044497;28;20061;-75
2023/12/29 01:22:19;;;;;;;1999.90;999.90;;;3.80;93.90;;;;;;5045390;28;20732;-77
2023/12/29 01:24:45;;;;;;;1999.90;999.90;;;3.80;93.80;;;;;;5045467;28;20025;-75
2023/12/29 01:27:11;;;;;;;1999.90;999.90;;;3.70;93.70;;;;;;5041276;28;20032;-75
2023/12/29 01:29:36;;;;;;;1999.90;999.90;;;3.80;93.70;;;;;;5045301;28;20380;-76
2023/12/29 01:32:03;;;;;;;1999.90;999.90;;;3.70;93.60;;;;;;5043485;28;20110;-75
2023/12/29 01:34:32;;;;;;;1999.90;999.90;;;3.60;93.40;;;;;;5029237;28;20421;-76
2023/12/29 01:37:03;;;;;;;1999.90;999.90;;;3.40;93.60;;;;;;5043670;28;20044;-75
2023/12/29 01:39:29;;;;;;;1999.90;999.90;;;3.50;93.80;;;;;;5044401;28;20050;-76
2023/12/29 01:41:55;;;;;;;1999.90;999.90;;;3.40;93.90;;;;;;5052947;28;20030;-75
2023/12/29 01:44:22;;;;;;;1999.90;999.90;;;3.50;94.10;;;;;;5046391;28;20033;-75
2023/12/29 01:46:50;;;;;;;1999.90;999.90;;;3.50;94.10;;;;;;5045563;28;20021;-75
2023/12/29 01:49:17;;;;;;;1999.90;999.90;;;3.40;94.10;;;;;;5029139;28;20174;-75
2023/12/29 01:51:45;;;;;;;1999.90;999.90;;;3.40;94.20;;;;;;5043047;28;20878;-75
2023/12/29 01:54:12;;;;;;;1999.90;999.90;;;3.50;94.30;;;;;;5046100;28;20042;-75
2023/12/29 01:56:38;;;;;;;1999.90;999.90;;;3.50;94.20;;;;;;5045635;28;20033;-75
2023/12/29 01:59:04;;;;;;;1999.90;999.90;;;3.40;94.20;;;;;;5045772;28;20029;-75
2023/12/29 02:01:30;;;;;;;1999.90;999.90;;;3.40;94.20;;;;;;5042945;28;20026;-76
2023/12/29 02:03:56;;;;;;;1999.90;999.90;;;3.40;94.10;;;;;;5041871;28;20554;-77
2023/12/29 02:06:23;;;;;;;1999.90;999.90;;;3.50;94.10;;;;;;5042996;28;20037;-75
2023/12/29 02:08:49;;;;;;;1999.90;999.90;;;3.50;94.10;;;;;;5043276;28;20495;-75
2023/12/29 02:11:17;;;;;;;1999.90;999.90;;;3.40;94.00;;;;;;5047014;28;20033;-74
2023/12/29 02:13:43;;;;;;;1999.90;999.90;;;3.40;94.10;;;;;;5041767;28;20040;-75
2023/12/29 02:16:36;;;;;;;1999.90;999.90;;;3.30;94.00;;;;;;5046693;28;20091;-76
2023/12/29 02:19:16;;;;;;;1999.90;999.90;;;3.20;93.90;;;;;;5043989;28;20025;-75
2023/12/29 02:21:41;;;;;;;1999.90;999.90;;;3.20;94.20;;;;;;5044588;28;20025;-75
2023/12/29 02:24:07;;;;;;;1999.90;999.90;;;3.20;94.20;;;;;;5042641;28;20040;-75
2023/12/29 02:26:36;;;;;;;1999.90;999.90;;;3.20;94.20;;;;;;5040383;28;20041;-76
2023/12/29 02:29:07;;;;;;;1999.90;999.90;;;3.20;94.20;;;;;;5044070;28;20025;-77
2023/12/29 02:31:35;;;;;;;1999.90;999.90;;;3.30;94.10;;;;;;5044379;28;20210;-76
2023/12/29 02:34:06;;;;;;;1999.90;999.90;;;3.10;94.00;;;;;;5043985;28;20473;-75
2023/12/29 02:36:34;;;;;;;1999.90;999.90;;;3.30;94.20;;;;;;5043581;28;20099;-74
2023/12/29 02:38:59;;;;;;;1999.90;999.90;;;3.40;94.00;;;;;;5053965;28;20037;-76
2023/12/29 02:41:25;;;;;;;1999.90;999.90;;;3.60;93.60;;;;;;5045546;28;20446;-75
2023/12/29 02:43:51;;;;;;;1999.90;999.90;;;3.60;93.20;;;;;;5048369;28;20068;-76
2023/12/29 02:46:17;;;;;;;1999.90;999.90;;;3.60;93.40;;;;;;5046365;28;20053;-75
2023/12/29 02:48:42;;;;;;;1999.90;999.90;;;3.70;93.30;;;;;;5049558;28;20025;-74
2023/12/29 02:51:08;;;;;;;1999.90;999.90;;;3.70;92.90;;;;;;5048189;28;20050;-77
2023/12/29 02:53:34;;;;;;;1999.90;999.90;;;3.80;93.00;;;;;;5049053;28;20029;-77
2023/12/29 02:56:00;;;;;;;1999.90;999.90;;;3.80;92.80;;;;;;5048223;28;20040;-77
2023/12/29 02:58:25;;;;;;;1999.90;999.90;;;3.80;92.50;;;;;;5031264;28;20405;-75
2023/12/29 03:00:51;;;;;;;1999.90;999.90;;;3.90;92.40;;;;;;5046596;28;20032;-75
2023/12/29 03:03:16;;;;;;;1999.90;999.90;;;3.90;92.30;;;;;;5047973;28;20041;-75
2023/12/29 03:05:42;;;;;;;1999.90;999.90;;;4.10;92.10;;;;;;5050330;28;20029;-75
2023/12/29 03:08:08;;;;;;;1999.90;999.90;;;4.10;92.00;;;;;;5044281;28;20079;-75
2023/12/29 03:10:33;;;;;;;1999.90;999.90;;;4.20;91.70;;;;;;5049489;28;20439;-75
2023/12/29 03:12:59;;;;;;;1999.90;999.90;;;4.20;91.50;;;;;;5047524;28;20518;-75
2023/12/29 03:15:24;;;;;;;1999.90;999.90;;;4.30;91.30;;;;;;5059777;28;20059;-76
2023/12/29 03:17:50;;;;;;;1999.90;999.90;;;4.20;91.10;;;;;;5043748;28;20033;-77
2023/12/29 03:20:16;;;;;;;1999.90;999.90;;;4.10;91.10;;;;;;5032654;28;20036;-75
2023/12/29 03:22:41;;;;;;;1999.90;999.90;;;4.20;91.20;;;;;;5047147;28;20040;-76
2023/12/29 03:25:07;;;;;;;1999.90;999.90;;;4.20;91.40;;;;;;5060322;28;20765;-75
2023/12/29 03:27:33;;;;;;;1999.90;999.90;;;4.20;91.10;;;;;;5047785;28;20678;-75
2023/12/29 03:29:58;;;;;;;1999.90;999.90;;;4.30;91.00;;;;;;5027605;28;20032;-76
2023/12/29 03:32:24;;;;;;;1999.90;999.90;;;4.20;90.90;;;;;;5063685;28;20033;-76
2023/12/29 03:34:50;;;;;;;1999.90;999.90;;;4.10;91.10;;;;;;5046236;28;20414;-76
2023/12/29 03:37:15;;;;;;;1999.90;999.90;;;4.10;91.40;;;;;;5044690;28;20570;-75
2023/12/29 03:39:41;;;;;;;1999.90;999.90;;;4.00;91.30;;;;;;5046416;28;20046;-77
2023/12/29 03:42:07;;;;;;;1999.90;999.90;;;4.10;91.50;;;;;;5046357;28;20031;-75
2023/12/29 03:44:32;;;;;;;1999.90;999.90;;;4.00;91.50;;;;;;5046286;28;20041;-75
2023/12/29 03:46:58;;;;;;;1999.90;999.90;;;4.00;91.40;;;;;;5045563;28;20040;-76
2023/12/29 03:49:24;;;;;;;1999.90;999.90;;;3.90;91.40;;;;;;5029806;28;20114;-75
2023/12/29 03:51:50;;;;;;;1999.90;999.90;;;3.90;91.50;;;;;;5043469;28;20055;-75
2023/12/29 03:54:18;;;;;;;1999.90;999.90;;;3.90;91.50;;;;;;5044642;28;20049;-73
2023/12/29 03:56:43;;;;;;;1999.90;999.90;;;3.90;91.50;;;;;;5045347;28;20032;-74
2023/12/29 03:59:09;;;;;;;1999.90;999.90;;;4.00;91.50;;;;;;5043912;28;20029;-76
2023/12/29 04:01:35;;;;;;;1999.90;999.90;;;4.00;91.30;;;;;;5047975;28;20036;-74
2023/12/29 04:04:00;;;;;;;1999.90;999.90;;;3.90;91.40;;;;;;5045072;28;20061;-76
2023/12/29 04:06:26;;;;;;;1999.90;999.90;;;3.90;91.60;;;;;;5060079;28;20397;-76
2023/12/29 04:08:52;;;;;;;1999.90;999.90;;;3.90;91.70;;;;;;5044864;28;20682;-74
2023/12/29 04:11:17;;;;;;;1999.90;999.90;;;3.90;91.60;;;;;;5044984;28;20033;-73
2023/12/29 04:13:43;;;;;;;1999.90;999.90;;;3.90;91.50;;;;;;5029414;28;20029;-75
2023/12/29 04:16:09;;;;;;;1999.90;999.90;;;3.90;91.80;;;;;;5049881;28;20045;-75
2023/12/29 04:18:34;;;;;;;1999.90;999.90;;;3.90;91.70;;;;;;5046473;28;20502;-75
2023/12/29 04:21:00;;;;;;;1999.90;999.90;;;3.90;91.60;;;;;;5045592;28;20492;-77
2023/12/29 04:23:25;;;;;;;1999.90;999.90;;;4.00;91.50;;;;;;5046883;28;20402;-76
2023/12/29 04:25:51;;;;;;;1999.90;999.90;;;3.90;91.20;;;;;;5042050;28;20034;-75
2023/12/29 04:28:17;;;;;;;1999.90;999.90;;;3.90;91.40;;;;;;5040695;28;20399;-75
2023/12/29 04:30:43;;;;;;;1999.90;999.90;;;3.90;90.80;;;;;;5044296;28;20029;-75
2023/12/29 04:33:08;;;;;;;1999.90;999.90;;;3.90;91.30;;;;;;5047178;28;20191;-75
2023/12/29 04:35:34;;;;;;;1999.90;999.90;;;3.90;91.40;;;;;;5045249;28;20071;-79
2023/12/29 04:38:00;;;;;;;1999.90;999.90;;;4.00;91.50;;;;;;5043752;28;20018;-75
2023/12/29 04:40:25;;;;;;;1999.90;999.90;;;4.00;91.20;;;;;;5046242;28;20049;-76
2023/12/29 04:42:51;;;;;;;1999.90;999.90;;;3.90;91.40;;;;;;5047149;28;20044;-75
2023/12/29 04:45:16;;;;;;;1999.90;999.90;;;3.90;91.40;;;;;;5043332;28;20040;-76
2023/12/29 04:47:42;;;;;;;1999.90;999.90;;;3.90;91.50;;;;;;5040625;28;20036;-75
2023/12/29 04:50:08;;;;;;;1999.90;999.90;;;3.90;91.30;;;;;;5042837;28;20045;-74
2023/12/29 04:52:34;;;;;;;1999.90;999.90;;;3.90;91.40;;;;;;5045795;28;20049;-75
2023/12/29 04:54:59;;;;;;;1999.90;999.90;;;3.90;91.40;;;;;;5048149;28;20487;-77
2023/12/29 04:57:25;;;;;;;1999.90;999.90;;;4.00;91.50;;;;;;5043668;28;20052;-75
2023/12/29 04:59:51;;;;;;;1999.90;999.90;;;4.10;91.40;;;;;;5047516;28;20118;-77
2023/12/29 05:02:16;;;;;;;1999.90;999.90;;;4.10;91.30;;;;;;5046019;28;20041;-76
2023/12/29 05:04:42;;;;;;;1999.90;999.90;;;4.10;91.20;;;;;;5047701;28;20025;-75
2023/12/29 05:07:09;;;;;;;1999.90;999.90;;;4.10;91.10;;;;;;5043506;28;20041;-75
2023/12/29 05:09:35;;;;;;;1999.90;999.90;;;4.10;91.30;;;;;;5043865;28;20037;-75
2023/12/29 05:12:02;;;;;;;1999.90;999.90;;;3.90;91.10;;;;;;5042485;28;20646;-75
2023/12/29 05:14:28;;;;;;;1999.90;999.90;;;4.20;91.30;;;;;;5046242;28;20075;-77
2023/12/29 05:16:53;;;;;;;1999.90;999.90;;;4.20;91.30;;;;;;5046031;28;20029;-74
2023/12/29 05:19:19;;;;;;;1999.90;999.90;;;4.30;91.20;;;;;;5059022;28;20391;-77
2023/12/29 05:21:45;;;;;;;1999.90;999.90;;;4.50;90.90;;;;;;5047316;28;20363;-75
2023/12/29 05:24:11;;;;;;;1999.90;999.90;;;4.70;90.60;;;;;;5046628;28;20111;-75
2023/12/29 05:26:37;;;;;;;1999.90;999.90;;;4.80;90.20;;;;;;5043337;28;20557;-75
2023/12/29 05:29:03;;;;;;;1999.90;999.90;;;4.90;90.10;;;;;;5047087;28;20036;-75
2023/12/29 05:31:28;;;;;;;1999.90;999.90;;;4.90;89.90;;;;;;5043808;28;20025;-75
2023/12/29 05:33:56;;;;;;;1999.90;999.90;;;5.00;89.70;;;;;;5044395;28;20040;-75
2023/12/29 05:36:21;;;;;;;1999.90;999.90;;;5.00;90.00;;;;;;5044868;28;20063;-75
2023/12/29 05:38:47;;;;;;;1999.90;999.90;;;4.90;90.00;;;;;;5045832;28;20120;-75
2023/12/29 05:41:13;;;;;;;1999.90;999.90;;;4.80;90.20;;;;;;5045383;28;20033;-75
2023/12/29 05:43:39;;;;;;;1999.90;999.90;;;5.00;90.60;;;;;;5044426;28;20037;-76
2023/12/29 05:46:13;;;;;;;1999.90;999.90;;;5.10;90.20;;;;;;5045820;28;20025;-75
2023/12/29 05:48:39;;;;;;;1999.90;999.90;;;5.20;90.20;;;;;;5044430;28;20514;-77
2023/12/29 05:51:13;;;;;;;1999.90;999.90;;;5.30;90.10;;;;;;5042473;28;20566;-75
2023/12/29 05:53:42;;;;;;;1999.90;999.90;;;5.40;89.80;;;;;;5045034;28;20039;-75
2023/12/29 05:56:09;;;;;;;1999.90;999.90;;;5.40;89.70;;;;;;5047713;28;20029;-75
2023/12/29 05:58:36;;;;;;;1999.90;999.90;;;5.40;89.70;;;;;;5045070;28;20067;-75
2023/12/29 06:01:01;;;;;;;1999.90;999.90;;;5.30;89.80;;;;;;5044841;28;20095;-76
2023/12/29 06:03:27;;;;;;;1999.90;999.90;;;5.20;90.00;;;;;;5045941;28;20616;-75
2023/12/29 06:05:54;;;;;;;1999.90;999.90;;;5.20;90.20;;;;;;5045470;28;20035;-75
2023/12/29 06:08:19;;;;;;;1999.90;999.90;;;5.10;90.30;;;;;;5042578;28;20112;-74
2023/12/29 06:10:45;;;;;;;1999.90;999.90;;;5.10;90.40;;;;;;5044445;28;20033;-75
2023/12/29 06:13:11;;;;;;;1999.90;999.90;;;4.90;90.60;;;;;;5044398;28;20029;-75
2023/12/29 06:15:37;;;;;;;1999.90;999.90;;;4.90;91.00;;;;;;5043099;28;20048;-75
2023/12/29 06:18:03;;;;;;;1999.90;999.90;;;5.00;91.20;;;;;;5045695;28;20163;-75
2023/12/29 06:20:28;;;;;;;1999.90;999.90;;;5.00;91.20;;;;;;5041724;28;20064;-75
2023/12/29 06:22:55;;;;;;;1999.90;999.90;;;5.00;91.60;;;;;;5043161;28;20117;-75
2023/12/29 06:25:21;;;;;;;1999.90;999.90;;;5.00;92.10;;;;;;5043480;28;20021;-75
2023/12/29 06:27:47;;;;;;;1999.90;999.90;;;5.10;92.10;;;;;;5045434;28;20028;-76
2023/12/29 06:30:13;;;;;;;1999.90;999.90;;;5.00;92.10;;;;;;5043586;28;20391;-77
2023/12/29 06:32:39;;;;;;;1999.90;999.90;;;4.90;92.20;;;;;;5042893;28;20167;-76
2023/12/29 06:35:05;;;;;;;1999.90;999.90;;;4.80;92.20;;;;;;5041980;28;20048;-74
2023/12/29 06:37:32;;;;;;;1999.90;999.90;;;4.70;92.40;;;;;;5044848;28;20155;-76
2023/12/29 06:39:57;;;;;;;1999.90;999.90;;;4.60;92.70;;;;;;5045919;28;20139;-77
2023/12/29 06:42:23;;;;;;;1999.90;999.90;;;4.50;93.20;;;;;;5045891;28;20510;-77
2023/12/29 06:44:49;;;;;;;1999.90;999.90;;;4.60;93.60;;;;;;5041071;28;20487;-75
2023/12/29 06:47:14;;;;;;;1999.90;999.90;;;4.60;93.40;;;;;;5045746;28;20033;-76
2023/12/29 06:49:41;;;;;;;1999.90;999.90;;;4.50;93.40;;;;;;5041415;28;20151;-75
2023/12/29 06:52:06;;;;;;;1999.90;999.90;;;4.50;93.90;;;;;;5042985;28;20029;-77
2023/12/29 06:54:34;;;;;;;1999.90;999.90;;;4.50;93.70;;;;;;5043760;28;20500;-75
2023/12/29 06:56:59;;;;;;;1999.90;999.90;;;4.40;93.80;;;;;;5043731;28;20037;-75
2023/12/29 06:59:25;;;;;;;1999.90;999.90;;;4.40;94.40;;;;;;5046416;28;20022;-75
2023/12/29 07:01:51;;;;;;;1999.90;999.90;;;4.40;94.40;;;;;;5041164;28;20139;-77
2023/12/29 07:04:16;;;;;;;1999.90;999.90;;;4.50;94.70;;;;;;5044922;28;20044;-75
2023/12/29 07:06:44;;;;;;;1999.90;999.90;;;4.40;94.80;;;;;;5041126;28;20025;-77
2023/12/29 07:09:09;;;;;;;1999.90;999.90;;;4.30;94.70;;;;;;5038119;28;20051;-76
2023/12/29 07:11:36;;;;;;;1999.90;999.90;;;4.20;94.70;;;;;;5041597;28;20495;-75
2023/12/29 07:14:02;;;;;;;1999.90;999.90;;;4.10;95.10;;;;;;5046415;28;20032;-78
2023/12/29 07:16:28;;;;;;;1999.90;999.90;;;4.10;95.20;;;;;;5023082;28;20032;-75
2023/12/29 07:18:54;;;;;;;1999.90;999.90;;;4.10;95.30;;;;;;5042145;28;20043;-75
2023/12/29 07:21:19;;;;;;;1999.90;999.90;;;4.10;95.30;;;;;;5045430;28;20036;-76
2023/12/29 07:23:45;;;;;;;1999.90;999.90;;;4.20;95.40;;;;;;5047182;28;20499;-75
2023/12/29 07:26:11;;;;;;;1999.90;999.90;;;4.20;95.30;;;;;;5044902;28;20048;-77
2023/12/29 07:28:37;;;;;;;1999.90;999.90;;;4.20;95.20;;;;;;5048138;28;20158;-77
2023/12/29 07:31:04;;;;;;;1999.90;999.90;;;4.10;95.10;;;;;;5047851;28;20037;-76
2023/12/29 07:33:30;;;;;;;1999.90;999.90;;;4.00;95.10;;;;;;5046930;28;20127;-75
2023/12/29 07:35:56;;;;;;;1999.90;999.90;;;4.10;95.30;;;;;;5040298;28;20461;-79
2023/12/29 07:38:23;;;;;;;1999.90;999.90;;;4.00;94.90;;;;;;5045720;28;20025;-78
2023/12/29 07:40:49;;;;;;;1999.90;999.90;;;4.10;95.20;;;;;;5046722;28;20036;-80
2023/12/29 07:43:15;;;;;;;1999.90;999.90;;;4.20;94.90;;;;;;5045304;28;20384;-78
2023/12/29 07:45:43;;;;;;;1999.90;999.90;;;4.30;94.70;;;;;;5046794;28;20436;-79
2023/12/29 07:48:08;;;;;;;1999.90;999.90;;;4.20;94.70;;;;;;5048916;28;20025;-76
2023/12/29 07:50:34;;;;;;;1999.90;999.90;;;4.30;94.60;;;;;;5049309;28;20506;-77
2023/12/29 07:53:02;;;;;;;1999.90;999.90;;;4.30;94.40;;;;;;5049634;28;20033;-77
2023/12/29 07:55:29;;;;;;;1999.90;999.90;;;4.30;94.20;;;;;;5046974;28;20108;-76
2023/12/29 07:57:55;;;;;;;1999.90;999.90;;;4.40;94.20;;;;;;5042516;28;20029;-76
2023/12/29 08:00:21;;;;;;;1999.90;999.90;;;4.40;94.20;;;;;;5045252;28;20036;-80
2023/12/29 08:02:47;;;;;;;1999.90;999.90;;;4.40;94.20;;;;;;5047525;28;20025;-80
2023/12/29 08:05:15;;;;;;;1999.90;999.90;;;4.40;94.20;;;;;;5042650;28;20033;-77
2023/12/29 08:07:40;;;;;;;1999.90;999.90;;;4.50;94.10;;;;;;5049065;28;20529;-77
2023/12/29 08:10:07;;;;;;;1999.90;999.90;;;4.50;94.00;;;;;;5046828;28;20033;-77
2023/12/29 08:12:33;;;;;;;1999.90;999.90;;;4.50;94.10;;;;;;5044519;28;20029;-76
2023/12/29 08:15:00;;;;;;;1999.90;999.90;;;4.50;94.30;;;;;;5047195;28;20124;-77
2023/12/29 08:17:26;;;;;;;1999.90;999.90;;;4.50;94.00;;;;;;5044625;28;20037;-78
2023/12/29 08:19:55;;;;;;;1999.90;999.90;;;4.60;94.00;;;;;;5043467;28;20028;-76
2023/12/29 08:22:21;;;;;;;1999.90;999.90;;;4.60;94.30;;;;;;5046665;28;20025;-77
2023/12/29 08:24:47;;;;;;;1999.90;999.90;;;4.70;94.20;;;;;;5044602;28;20038;-76
2023/12/29 08:27:13;;;;;;;1999.90;999.90;;;4.70;94.10;;;;;;5044391;28;20036;-79
2023/12/29 08:29:40;;;;;;;1999.90;999.90;;;4.80;94.10;;;;;;5044233;28;20032;-77
2023/12/29 08:32:06;;;;;;;1999.90;999.90;;;4.90;94.20;;;;;;5043487;28;20488;-77
2023/12/29 08:34:31;;;;;;;1999.90;999.90;;;4.80;94.20;;;;;;5040860;28;20049;-77
2023/12/29 08:36:57;;;;;;;1999.90;999.90;;;4.90;94.00;;;;;;5046004;28;20029;-75
2023/12/29 08:39:23;;;;;;;1999.90;999.90;;;5.10;94.10;;;;;;5043532;28;20744;-76
2023/12/29 08:41:51;;;;;;;1999.90;999.90;;;5.10;94.00;;;;;;5046215;28;20658;-76
2023/12/29 08:44:17;;;;;;;1999.90;999.90;;;5.10;93.80;;;;;;5047231;28;20037;-79
2023/12/29 08:46:43;;;;;;;1999.90;999.90;;;5.20;93.90;;;;;;5046642;28;20544;-78
2023/12/29 08:49:09;;;;;;;1999.90;999.90;;;5.20;93.90;;;;;;5044852;28;20032;-80
2023/12/29 08:51:37;;;;;;;1999.90;999.90;;;5.20;94.00;;;;;;5044619;28;20106;-77
2023/12/29 08:54:03;;;;;;;1999.90;999.90;;;5.20;93.80;;;;;;5046740;28;20071;-80
2023/12/29 08:56:35;;;;;;;1999.90;999.90;;;5.40;94.00;;;;;;5049671;28;20029;-87
2023/12/29 08:59:01;;;;;;;1999.90;999.90;;;5.40;93.90;;;;;;5045657;28;20029;-88
2023/12/29 09:01:26;;;;;;;1999.90;999.90;;;5.50;94.00;;;;;;5044938;28;20578;-80
2023/12/29 09:03:52;;;;;;;1999.90;999.90;;;5.60;93.90;;;;;;5046682;28;20044;-76
2023/12/29 09:06:18;;;;;;;1999.90;999.90;;;5.70;93.90;;;;;;5045312;28;20033;-75
2023/12/29 09:08:44;;;;;;;1999.90;999.90;;;5.70;93.80;;;;;;5045071;28;20037;-78
2023/12/29 09:11:11;;;;;;;1999.90;999.90;;;5.90;93.70;;;;;;5048350;28;20037;-85
2023/12/29 09:13:36;;;;;;;1999.90;999.90;;;5.90;93.60;;;;;;5063555;28;20029;-87
2023/12/29 09:16:02;;;;;;;1999.90;999.90;;;5.90;93.50;;;;;;5047884;28;20108;-83
2023/12/29 09:18:28;;;;;;;1999.90;999.90;;;5.90;93.50;;;;;;5049682;28;20060;-87
2023/12/29 09:20:53;;;;;;;1999.90;999.90;;;5.90;93.70;;;;;;5052118;28;20040;-85
2023/12/29 09:23:20;;;;;;;1999.90;999.90;;;5.90;93.70;;;;;;5050209;28;20040;-83
2023/12/29 09:25:47;;;;;;;1999.90;999.90;;;6.10;93.90;;;;;;5056088;28;20045;-85
2023/12/29 09:28:12;;;;;;;1999.90;999.90;;;6.20;93.30;;;;;;5037241;28;20036;-83
2023/12/29 09:30:39;;;;;;;1999.90;999.90;;;6.40;93.40;;;;;;5040406;28;20029;-85
2023/12/29 09:33:05;;;;;;;1999.90;999.90;;;6.70;93.20;;;;;;5050918;28;20025;-84
2023/12/29 09:35:31;;;;;;;1999.90;999.90;;;6.90;92.70;;;;;;5053196;28;20037;-88
2023/12/29 09:37:59;;;;;;;1999.90;999.90;;;7.00;92.30;;;;;;5037861;28;20033;-86
2023/12/29 09:40:25;;;;;;;1999.90;999.90;;;7.10;92.10;;;;;;5046797;28;20033;-83
2023/12/29 09:42:52;;;;;;;1999.90;999.90;;;7.20;91.90;;;;;;5046526;28;20091;-85
2023/12/29 09:45:23;;;;;;;1999.90;999.90;;;7.30;91.60;;;;;;5049226;28;20046;-81
2023/12/29 09:47:53;;;;;;;1999.90;999.90;;;7.30;91.60;;;;;;5052011;28;20075;-80
2023/12/29 09:50:19;;;;;;;1999.90;999.90;;;7.40;91.50;;;;;;5054296;28;20075;-82
2023/12/29 09:52:52;;;;;;;1999.90;999.90;;;7.50;91.30;;;;;;5049333;28;20052;-79
2023/12/29 09:55:19;;;;;;;1999.90;999.90;;;7.60;91.10;;;;;;5048116;28;20036;-80
2023/12/29 09:57:48;;;;;;;1999.90;999.90;;;7.80;90.70;;;;;;5050333;28;20055;-82
2023/12/29 10:00:16;;;;;;;1999.90;999.90;;;7.90;90.10;;;;;;5038465;28;20041;-85
2023/12/29 10:02:42;;;;;;;1999.90;999.90;;;8.00;89.40;;;;;;5050128;28;20127;-75
2023/12/29 10:05:09;;;;;;;1999.90;999.90;;;8.20;89.50;;;;;;5052774;28;20036;-85
2023/12/29 10:07:39;;;;;;;1999.90;999.90;;;8.30;88.50;;;;;;5051051;28;20045;-84
2023/12/29 10:10:06;;;;;;;1999.90;999.90;;;8.60;88.20;;;;;;5042231;28;20032;-81
2023/12/29 10:12:33;;;;;;;1999.90;999.90;;;8.80;87.10;;;;;;5040772;28;20087;-79
2023/12/29 10:15:25;;;;;;;1999.90;999.90;;;8.90;86.20;;;;;;5043857;28;20094;-87
2023/12/29 10:18:15;;;;;;;1999.90;999.90;;;8.90;87.10;;;;;;5020113;28;20538;-76
2023/12/29 10:21:12;;;;;;;1999.90;999.90;;;9.00;85.40;;;;;;5041324;28;20025;-78
2023/12/29 10:23:57;;;;;;;1999.90;999.90;;;9.10;86.00;;;;;;5037405;28;20064;-78
2023/12/29 10:26:23;;;;;;;1999.90;999.90;;;9.20;84.80;;;;;;5035126;28;20548;-75
2023/12/29 10:28:50;;;;;;;1999.90;999.90;;;9.20;83.90;;;;;;5041449;28;20676;-78
2023/12/29 10:31:16;;;;;;;1999.90;999.90;;;9.20;84.70;;;;;;5045575;28;20090;-77
2023/12/29 10:33:42;;;;;;;1999.90;999.90;;;9.30;84.70;;;;;;5039377;28;20061;-78
2023/12/29 10:36:08;;;;;;;1999.90;999.90;;;9.20;84.40;;;;;;5045859;28;20033;-80
2023/12/29 10:38:34;;;;;;;1999.90;999.90;;;9.20;84.00;;;;;;5045020;28;20051;-78
2023/12/29 10:41:26;;;;;;;1999.90;999.90;;;8.90;84.70;;;;;;5044420;28;20037;-78
2023/12/29 10:43:54;;;;;;;1999.90;999.90;;;8.80;85.30;;;;;;5042779;28;20522;-78
2023/12/29 10:46:25;;;;;;;1999.90;999.90;;;8.90;85.50;;;;;;5045573;28;20037;-78
2023/12/29 10:48:51;;;;;;;1999.90;999.90;;;8.80;85.50;;;;;;5043824;28;20029;-78
2023/12/29 10:51:26;;;;;;;1999.90;999.90;;;8.80;85.90;;;;;;5041097;28;20056;-78
2023/12/29 10:53:59;;;;;;;1999.90;999.90;;;8.70;85.80;;;;;;5042970;28;20029;-83
2023/12/29 10:56:24;;;;;;;1999.90;999.90;;;8.70;85.70;;;;;;5028424;28;20628;-80
2023/12/29 10:59:04;;;;;;;1999.90;999.90;;;8.80;86.00;;;;;;5046506;28;20044;-78
2023/12/29 11:01:34;;;;;;;1999.90;999.90;;;8.70;85.50;;;;;;5045802;28;20479;-79
2023/12/29 11:04:06;;;;;;;1999.90;999.90;;;8.70;85.50;;;;;;5047114;28;20036;-78
2023/12/29 11:06:44;;;;;;;1999.90;999.90;;;8.70;85.20;;;;;;5042909;28;20028;-78
2023/12/29 11:09:11;;;;;;;1999.90;999.90;;;8.90;85.40;;;;;;5043770;28;20044;-77
2023/12/29 11:11:37;;;;;;;1999.90;999.90;;;9.10;84.50;;;;;;5042263;28;20025;-78
2023/12/29 11:14:04;;;;;;;1999.90;999.90;;;9.20;84.20;;;;;;5047037;28;20102;-76
2023/12/29 11:16:31;;;;;;;1999.90;999.90;;;9.30;83.80;;;;;;5047813;28;20544;-77
2023/12/29 11:18:58;;;;;;;1999.90;999.90;;;9.40;83.30;;;;;;5044285;28;20087;-76
2023/12/29 11:21:26;;;;;;;1999.90;999.90;;;9.50;82.90;;;;;;5047601;28;20064;-76
2023/12/29 11:23:52;;;;;;;1999.90;999.90;;;9.50;82.60;;;;;;5039614;28;20022;-78
2023/12/29 11:26:19;;;;;;;1999.90;999.90;;;9.50;82.40;;;;;;5047743;28;21268;-77
2023/12/29 11:28:50;;;;;;;1999.90;999.90;;;9.60;82.00;;;;;;5043956;28;20029;-77
2023/12/29 11:31:17;;;;;;;1999.90;999.90;;;9.70;82.20;;;;;;5045714;28;20079;-76
2023/12/29 11:33:52;;;;;;;1999.90;999.90;;;9.60;81.60;;;;;;5041977;28;20100;-81
2023/12/29 11:36:23;;;;;;;1999.90;999.90;;;9.70;81.40;;;;;;5051698;28;20469;-77
2023/12/29 11:39:02;;;;;;;1999.90;999.90;;;9.60;81.20;;;;;;5046747;28;20029;-77
2023/12/29 11:41:40;;;;;;;1999.90;999.90;;;9.60;81.70;;;;;;5045915;28;20540;-77
2023/12/29 11:44:05;;;;;;;1999.90;999.90;;;9.60;81.20;;;;;;5049204;28;20067;-77
2023/12/29 11:46:38;;;;;;;1999.90;999.90;;;9.60;80.70;;;;;;5044491;28;20061;-77
2023/12/29 11:49:05;;;;;;;1999.90;999.90;;;9.70;81.60;;;;;;5046260;28;20029;-79
2023/12/29 11:51:35;;;;;;;1999.90;999.90;;;9.70;81.20;;;;;;5041790;28;20499;-76
2023/12/29 11:54:05;;;;;;;1999.90;999.90;;;9.80;80.80;;;;;;5047283;28;20053;-78
2023/12/29 11:56:35;;;;;;;1999.90;999.90;;;9.80;79.60;;;;;;5044939;28;20021;-78
2023/12/29 11:59:24;;;;;;;1999.90;999.90;;;9.90;79.30;;;;;;5044858;28;20036;-77
2023/12/29 12:01:58;;;;;;;1999.90;999.90;;;9.90;78.90;;;;;;5043278;28;20400;-77
2023/12/29 12:04:40;;;;;;;1999.90;999.90;;;9.90;78.80;;;;;;5045138;28;20599;-78
2023/12/29 12:07:21;;;;;;;1999.90;999.90;;;10.00;79.10;;;;;;5028725;28;20040;-78
2023/12/29 12:09:49;;;;;;;1999.90;999.90;;;9.80;77.50;;;;;;5041638;28;20032;-77